Time;durP1;ratioP1;P1;durP2;ratioP2;P2;SDS_P1;SDS_P2;PMS_P1;PMS_P2;Temp;Humidity;BMP_temperature;BMP_pressure;BME280_temperature;BME280_humidity;BME280_pressure;Samples;Min_cycle;Max_cycle;Signal;HPM_P1;HPM_P2
2021/06/19 00:00:11;;;;;;;17.90;5.47;;;23.00;70.30;;;;;;5078889;28;20054;-76
2021/06/19 00:02:37;;;;;;;16.83;5.25;;;23.00;70.80;;;;;;5077887;28;20040;-76
2021/06/19 00:05:03;;;;;;;17.73;5.75;;;23.00;69.70;;;;;;5074716;28;20073;-76
2021/06/19 00:07:29;;;;;;;17.77;5.10;;;22.80;69.20;;;;;;5082295;28;20029;-76
2021/06/19 00:09:54;;;;;;;18.08;4.97;;;22.70;68.70;;;;;;5077168;28;20032;-76
2021/06/19 00:12:20;;;;;;;19.95;4.47;;;22.60;67.50;;;;;;5072892;28;20029;-76
2021/06/19 00:14:46;;;;;;;15.68;4.53;;;22.50;67.10;;;;;;5073087;28;20028;-75
2021/06/19 00:17:13;;;;;;;20.98;4.97;;;22.40;67.00;;;;;;5073060;28;20059;-76
2021/06/19 00:19:39;;;;;;;18.50;4.90;;;22.30;67.80;;;;;;5073121;28;20458;-76
2021/06/19 00:22:05;;;;;;;16.52;5.25;;;22.10;69.00;;;;;;5072753;28;20030;-75
2021/06/19 00:24:37;;;;;;;13.35;4.45;;;22.00;69.80;;;;;;5072795;28;20111;-75
2021/06/19 00:27:03;;;;;;;20.58;5.15;;;22.10;69.60;;;;;;5072588;28;20508;-75
2021/06/19 00:29:30;;;;;;;15.75;4.75;;;22.00;69.50;;;;;;5072792;28;20119;-75
2021/06/19 00:31:57;;;;;;;12.90;3.97;;;21.90;69.50;;;;;;5073088;28;20016;-75
2021/06/19 00:34:22;;;;;;;14.75;4.63;;;21.90;69.40;;;;;;5072855;28;20055;-76
2021/06/19 00:36:48;;;;;;;19.60;4.65;;;21.80;69.50;;;;;;5072780;28;20349;-75
2021/06/19 00:39:13;;;;;;;10.65;4.45;;;22.00;68.90;;;;;;5072705;28;20024;-76
2021/06/19 00:41:39;;;;;;;13.38;4.32;;;22.00;67.70;;;;;;5073129;28;20564;-75
2021/06/19 00:44:14;;;;;;;8.98;4.10;;;22.00;67.30;;;;;;5072602;28;20021;-75
2021/06/19 00:46:39;;;;;;;9.98;4.25;;;22.10;67.00;;;;;;5072504;28;20064;-76
2021/06/19 00:49:05;;;;;;;14.30;3.72;;;22.20;66.40;;;;;;5072488;28;20056;-76
2021/06/19 00:51:30;;;;;;;18.50;4.32;;;22.30;66.00;;;;;;5071094;28;20021;-76
2021/06/19 00:53:56;;;;;;;16.55;4.80;;;22.20;66.20;;;;;;5072399;28;20021;-76
2021/06/19 00:56:22;;;;;;;13.13;3.75;;;22.20;66.90;;;;;;5072508;28;20029;-76
2021/06/19 00:58:48;;;;;;;11.65;3.83;;;22.20;66.80;;;;;;5072332;28;20098;-76
2021/06/19 01:01:14;;;;;;;14.70;4.38;;;22.30;66.50;;;;;;5072465;28;20158;-76
2021/06/19 01:03:39;;;;;;;18.80;4.82;;;22.40;66.40;;;;;;5072485;28;20020;-76
2021/06/19 01:06:05;;;;;;;15.82;4.13;;;22.40;66.80;;;;;;5072340;28;20032;-76
2021/06/19 01:08:31;;;;;;;9.10;3.92;;;22.40;66.40;;;;;;5072231;28;20040;-75
2021/06/19 01:10:57;;;;;;;10.60;4.30;;;22.40;66.40;;;;;;5072195;28;20442;-76
2021/06/19 01:13:23;;;;;;;15.52;3.38;;;22.30;66.50;;;;;;5072517;28;20107;-76
2021/06/19 01:15:49;;;;;;;8.48;3.50;;;22.30;66.40;;;;;;5072259;28;20028;-76
2021/06/19 01:18:14;;;;;;;9.52;3.85;;;22.40;66.40;;;;;;5071130;28;20493;-76
2021/06/19 01:20:40;;;;;;;12.25;4.15;;;22.40;66.40;;;;;;5072197;28;20032;-75
2021/06/19 01:23:05;;;;;;;15.38;4.28;;;22.50;66.50;;;;;;5073703;28;20036;-75
2021/06/19 01:25:36;;;;;;;9.95;3.78;;;22.40;66.40;;;;;;5076250;28;20029;-75
2021/06/19 01:28:07;;;;;;;7.35;3.28;;;22.50;66.40;;;;;;5076151;28;20074;-75
2021/06/19 01:30:34;;;;;;;11.65;4.00;;;22.50;66.50;;;;;;5076239;28;20326;-76
2021/06/19 01:32:59;;;;;;;13.85;4.05;;;22.50;66.50;;;;;;5076161;28;20017;-76
2021/06/19 01:35:25;;;;;;;14.00;4.47;;;22.60;66.70;;;;;;5075983;28;20032;-76
2021/06/19 01:37:54;;;;;;;11.43;4.20;;;22.60;67.00;;;;;;5075633;28;20025;-77
2021/06/19 01:40:27;;;;;;;11.95;4.18;;;22.50;67.00;;;;;;5076025;28;20104;-77
2021/06/19 01:42:54;;;;;;;16.73;5.82;;;22.50;66.80;;;;;;5076091;28;20055;-76
2021/06/19 01:45:25;;;;;;;13.15;6.03;;;22.40;66.50;;;;;;5075984;28;20021;-76
2021/06/19 01:47:51;;;;;;;18.95;6.32;;;22.40;66.60;;;;;;5075706;28;20045;-76
2021/06/19 01:50:24;;;;;;;12.88;5.72;;;22.40;66.90;;;;;;5075772;28;20024;-75
2021/06/19 01:52:51;;;;;;;14.85;5.55;;;22.40;66.80;;;;;;5075742;28;20024;-75
2021/06/19 01:55:17;;;;;;;11.55;4.97;;;22.30;66.70;;;;;;5075544;28;20020;-76
2021/06/19 01:57:43;;;;;;;17.52;4.97;;;22.30;67.00;;;;;;5075582;28;20025;-76
2021/06/19 02:00:10;;;;;;;15.50;5.85;;;22.30;67.00;;;;;;5075607;28;20028;-76
2021/06/19 02:02:40;;;;;;;12.98;5.35;;;22.20;67.00;;;;;;5075859;28;20101;-75
2021/06/19 02:05:08;;;;;;;15.88;7.07;;;22.20;67.10;;;;;;5075348;28;20494;-75
2021/06/19 02:07:43;;;;;;;19.38;8.95;;;22.10;67.30;;;;;;5075397;28;20489;-76
2021/06/19 02:10:09;;;;;;;;;;;22.00;67.50;;;;;;5075819;28;20017;-76
2021/06/19 02:12:35;;;;;;;19.75;8.82;;;22.00;67.50;;;;;;5075477;28;19908;-76
2021/06/19 02:15:00;;;;;;;14.43;7.50;;;21.90;67.30;;;;;;5075431;28;20389;-76
2021/06/19 02:17:26;;;;;;;14.52;7.18;;;21.80;67.70;;;;;;5075398;28;20052;-76
2021/06/19 02:19:51;;;;;;;14.73;6.57;;;21.80;67.90;;;;;;5075222;28;20025;-76
2021/06/19 02:22:17;;;;;;;20.23;7.10;;;21.80;67.90;;;;;;5075342;28;20016;-76
2021/06/19 02:24:43;;;;;;;15.90;6.32;;;21.80;67.90;;;;;;5080960;28;20087;-76
2021/06/19 02:27:12;;;;;;;13.00;5.10;;;21.80;67.60;;;;;;5082550;28;20020;-77
2021/06/19 02:29:38;;;;;;;12.82;4.32;;;21.70;67.70;;;;;;5075065;28;20024;-75
2021/06/19 02:32:06;;;;;;;14.25;4.53;;;21.70;67.80;;;;;;5073928;28;20056;-75
2021/06/19 02:34:32;;;;;;;9.85;4.07;;;21.60;67.90;;;;;;5073937;28;20496;-76
2021/06/19 02:36:58;;;;;;;11.00;4.15;;;21.60;68.10;;;;;;5074802;28;20158;-76
2021/06/19 02:39:24;;;;;;;14.15;4.10;;;21.50;68.70;;;;;;5074933;28;20159;-75
2021/06/19 02:41:49;;;;;;;18.05;4.78;;;21.50;68.50;;;;;;5075019;28;20020;-76
2021/06/19 02:44:15;;;;;;;11.43;4.07;;;21.50;68.60;;;;;;5074728;28;20029;-76
2021/06/19 02:46:41;;;;;;;9.75;3.65;;;21.40;68.90;;;;;;5075255;28;20032;-75
2021/06/19 02:49:06;;;;;;;11.82;4.47;;;21.40;68.90;;;;;;5076429;28;20050;-76
2021/06/19 02:51:32;;;;;;;15.43;4.68;;;21.40;69.20;;;;;;5076199;28;20449;-77
2021/06/19 02:53:57;;;;;;;12.68;4.65;;;21.40;69.20;;;;;;5075838;28;20108;-76
2021/06/19 02:56:23;;;;;;;14.43;4.15;;;21.30;68.80;;;;;;5075274;28;20040;-76
2021/06/19 02:58:49;;;;;;;10.73;4.20;;;21.30;68.80;;;;;;5075539;28;20078;-76
2021/06/19 03:01:14;;;;;;;16.50;4.25;;;21.20;68.90;;;;;;5076223;28;20048;-75
2021/06/19 03:03:40;;;;;;;15.05;4.47;;;21.10;69.10;;;;;;5075751;28;20051;-76
2021/06/19 03:06:06;;;;;;;13.18;4.45;;;21.00;69.60;;;;;;5075817;28;20337;-76
2021/06/19 03:08:31;;;;;;;12.60;4.25;;;20.90;69.80;;;;;;5075970;28;20040;-76
2021/06/19 03:10:57;;;;;;;13.98;4.68;;;20.80;70.00;;;;;;5075817;28;20017;-75
2021/06/19 03:13:23;;;;;;;14.90;4.80;;;20.90;69.80;;;;;;5079892;28;20426;-81
2021/06/19 03:15:48;;;;;;;11.02;4.03;;;20.90;70.20;;;;;;5080450;28;20025;-81
2021/06/19 03:18:14;;;;;;;11.85;4.32;;;20.90;70.60;;;;;;5081667;28;20033;-83
2021/06/19 03:20:39;;;;;;;12.23;4.55;;;20.90;70.50;;;;;;5080395;28;20024;-82
2021/06/19 03:23:06;;;;;;;16.00;4.65;;;20.90;69.90;;;;;;5084069;28;20131;-82
2021/06/19 03:25:34;;;;;;;13.82;4.45;;;20.90;69.60;;;;;;5083229;28;20085;-82
2021/06/19 03:28:02;;;;;;;14.30;3.92;;;21.00;69.20;;;;;;5084962;28;20028;-82
2021/06/19 03:30:31;;;;;;;12.90;4.47;;;21.10;69.20;;;;;;5093835;28;20025;-79
2021/06/19 03:32:57;;;;;;;15.65;4.25;;;21.00;68.50;;;;;;5077274;28;20023;-79
2021/06/19 03:35:23;;;;;;;13.57;4.60;;;21.00;69.20;;;;;;5080307;28;20069;-82
2021/06/19 03:37:50;;;;;;;14.93;4.25;;;20.80;69.30;;;;;;5080719;28;20028;-83
2021/06/19 03:40:17;;;;;;;14.68;4.68;;;20.70;70.00;;;;;;5078309;28;20032;-83
2021/06/19 03:42:44;;;;;;;16.13;4.28;;;20.60;70.40;;;;;;5076543;28;20055;-84
2021/06/19 03:45:11;;;;;;;14.98;4.45;;;20.50;70.80;;;;;;5076292;28;20028;-83
2021/06/19 03:47:39;;;;;;;12.98;4.32;;;20.60;70.40;;;;;;5073264;28;20052;-84
2021/06/19 03:50:05;;;;;;;16.00;4.55;;;20.70;70.10;;;;;;5074072;28;20458;-84
2021/06/19 03:52:31;;;;;;;19.08;4.80;;;20.90;69.70;;;;;;5074726;28;20412;-85
2021/06/19 03:54:57;;;;;;;12.48;3.80;;;21.00;69.20;;;;;;5074702;28;20024;-86
2021/06/19 03:57:29;;;;;;;10.02;3.88;;;21.20;68.30;;;;;;5075860;28;20056;-86
2021/06/19 03:59:56;;;;;;;14.35;4.95;;;21.40;67.30;;;;;;5075394;28;20024;-85
2021/06/19 04:02:23;;;;;;;15.10;4.45;;;21.50;67.10;;;;;;5076914;28;20077;-86
2021/06/19 04:04:49;;;;;;;14.02;4.43;;;21.60;66.40;;;;;;5077269;28;20032;-86
2021/06/19 04:07:15;;;;;;;14.43;4.72;;;21.60;65.80;;;;;;5077529;28;20035;-87
2021/06/19 04:09:41;;;;;;;17.30;5.10;;;21.60;65.80;;;;;;5076468;28;20036;-86
2021/06/19 04:12:07;;;;;;;13.50;4.57;;;21.60;65.40;;;;;;5074013;28;20111;-82
2021/06/19 04:14:33;;;;;;;16.58;4.82;;;21.50;65.70;;;;;;5073178;28;20016;-82
2021/06/19 04:16:59;;;;;;;17.55;4.70;;;21.40;65.90;;;;;;5072897;28;20032;-82
2021/06/19 04:19:24;;;;;;;12.20;4.47;;;21.30;66.50;;;;;;5073185;28;20017;-82
2021/06/19 04:21:50;;;;;;;15.73;5.22;;;21.20;66.90;;;;;;5073220;28;20040;-82
2021/06/19 04:24:16;;;;;;;11.60;4.25;;;21.20;67.20;;;;;;5071733;28;20021;-82
2021/06/19 04:26:42;;;;;;;14.25;4.55;;;21.10;67.10;;;;;;5072838;28;20078;-82
2021/06/19 04:29:08;;;;;;;16.88;4.55;;;21.10;66.70;;;;;;5072676;28;20096;-81
2021/06/19 04:31:33;;;;;;;12.93;5.35;;;21.00;67.00;;;;;;5072854;28;20109;-81
2021/06/19 04:33:59;;;;;;;15.88;4.47;;;21.00;67.70;;;;;;5072704;28;20512;-81
2021/06/19 04:36:26;;;;;;;18.67;5.50;;;20.90;68.10;;;;;;5072589;28;20021;-81
2021/06/19 04:38:52;;;;;;;12.90;4.93;;;21.00;67.60;;;;;;5072556;28;20024;-81
2021/06/19 04:41:54;;;;;;;8.77;4.15;;;21.20;67.30;;;;;;5072745;28;20479;-81
2021/06/19 04:46:47;;;;;;;12.45;5.03;;;21.30;66.80;;;;;;5072617;28;20043;-82
2021/06/19 04:49:13;;;;;;;10.68;4.22;;;21.30;66.90;;;;;;5072806;28;20036;-84
2021/06/19 04:51:39;;;;;;;14.45;5.13;;;21.40;66.70;;;;;;5071896;28;20032;-83
2021/06/19 04:54:06;;;;;;;12.65;5.25;;;21.40;67.00;;;;;;5072964;28;20443;-85
2021/06/19 04:56:33;;;;;;;15.82;4.63;;;21.50;67.90;;;;;;5072907;28;20469;-83
2021/06/19 04:59:00;;;;;;;17.75;5.10;;;21.70;66.80;;;;;;5072176;28;20078;-82
2021/06/19 05:01:25;;;;;;;16.08;5.22;;;21.90;67.00;;;;;;5071488;28;20528;-83
2021/06/19 05:03:51;;;;;;;14.85;4.63;;;22.10;66.80;;;;;;5071268;28;20035;-84
2021/06/19 05:06:18;;;;;;;12.38;5.15;;;22.20;65.40;;;;;;5072493;28;20104;-84
2021/06/19 05:08:43;;;;;;;11.65;4.82;;;22.40;64.80;;;;;;5072327;28;20040;-84
2021/06/19 05:11:09;;;;;;;16.33;4.85;;;22.60;64.30;;;;;;5071072;28;20420;-84
2021/06/19 05:13:34;;;;;;;10.55;3.97;;;22.80;63.20;;;;;;5071203;28;20524;-84
2021/06/19 05:16:00;;;;;;;9.65;4.68;;;23.00;62.50;;;;;;5071070;28;20533;-84
2021/06/19 05:18:26;;;;;;;12.23;5.35;;;23.20;61.60;;;;;;5071822;28;20377;-85
2021/06/19 05:20:51;;;;;;;9.48;4.40;;;23.40;61.30;;;;;;5072313;28;20017;-84
2021/06/19 05:23:17;;;;;;;10.07;4.60;;;23.60;61.00;;;;;;5072298;28;20050;-80
2021/06/19 05:25:42;;;;;;;14.85;5.00;;;23.70;60.50;;;;;;5072181;28;20036;-80
2021/06/19 05:28:08;;;;;;;11.15;5.05;;;23.80;60.40;;;;;;5072083;28;20021;-81
2021/06/19 05:30:33;;;;;;;13.68;4.78;;;23.70;60.50;;;;;;5072231;28;20036;-81
2021/06/19 05:32:59;;;;;;;17.27;4.95;;;23.70;60.60;;;;;;5072214;28;20157;-81
2021/06/19 05:35:24;;;;;;;20.20;5.05;;;23.70;59.00;;;;;;5071985;28;20120;-81
2021/06/19 05:37:50;;;;;;;14.52;4.05;;;23.70;58.60;;;;;;5071623;28;20089;-82
2021/06/19 05:40:16;;;;;;;14.85;5.30;;;23.70;58.40;;;;;;5071866;28;20021;-82
2021/06/19 05:42:42;;;;;;;12.35;4.55;;;23.80;58.30;;;;;;5071918;28;20071;-82
2021/06/19 05:45:08;;;;;;;13.88;4.80;;;24.00;58.30;;;;;;5071895;28;20323;-82
2021/06/19 05:47:34;;;;;;;12.70;4.53;;;24.20;58.10;;;;;;5070226;28;20060;-82
2021/06/19 05:49:59;;;;;;;11.05;4.20;;;24.30;57.90;;;;;;5072063;28;20025;-81
2021/06/19 05:52:26;;;;;;;15.57;4.60;;;24.40;57.70;;;;;;5070409;28;20496;-82
2021/06/19 05:54:52;;;;;;;11.90;4.30;;;24.60;57.70;;;;;;5071849;28;20025;-81
2021/06/19 05:57:17;;;;;;;13.25;5.50;;;24.60;57.40;;;;;;5071897;28;20381;-82
2021/06/19 05:59:43;;;;;;;12.95;5.30;;;24.70;57.20;;;;;;5071866;28;20021;-82
2021/06/19 06:02:08;;;;;;;14.57;5.10;;;24.80;56.80;;;;;;5072018;28;20027;-82
2021/06/19 06:04:35;;;;;;;19.70;5.28;;;24.60;56.70;;;;;;5071596;28;20024;-80
2021/06/19 06:07:02;;;;;;;12.68;4.88;;;24.70;57.00;;;;;;5071690;28;20032;-81
2021/06/19 06:09:27;;;;;;;15.88;5.72;;;24.80;57.10;;;;;;5070848;28;20064;-80
2021/06/19 06:11:53;;;;;;;17.73;7.32;;;24.90;57.20;;;;;;5075241;28;20020;-82
2021/06/19 06:14:19;;;;;;;18.67;7.28;;;25.20;56.90;;;;;;5075285;28;20016;-82
2021/06/19 06:16:44;;;;;;;16.05;7.03;;;25.30;56.60;;;;;;5075250;28;20024;-80
2021/06/19 06:19:10;;;;;;;15.15;6.22;;;25.50;56.10;;;;;;5075349;28;20024;-81
2021/06/19 06:21:36;;;;;;;19.55;5.50;;;25.70;55.90;;;;;;5074777;28;20024;-80
2021/06/19 06:24:02;;;;;;;14.27;4.95;;;25.80;55.60;;;;;;5073241;28;20037;-81
2021/06/19 06:26:27;;;;;;;16.70;5.20;;;25.80;54.90;;;;;;5074986;28;20055;-82
2021/06/19 06:28:53;;;;;;;13.52;4.95;;;25.70;53.50;;;;;;5074855;28;20075;-82
2021/06/19 06:31:19;;;;;;;19.13;5.22;;;25.70;53.20;;;;;;5074650;28;20050;-81
2021/06/19 06:33:44;;;;;;;18.88;5.20;;;25.60;53.20;;;;;;5075046;28;20082;-81
2021/06/19 06:36:10;;;;;;;11.82;4.75;;;25.50;53.10;;;;;;5076528;28;20354;-80
2021/06/19 06:38:36;;;;;;;10.68;4.82;;;25.60;53.00;;;;;;5080065;28;20453;-80
2021/06/19 06:41:01;;;;;;;17.02;5.22;;;25.60;53.00;;;;;;5098542;28;20013;-79
2021/06/19 06:43:27;;;;;;;16.73;4.68;;;25.60;53.10;;;;;;5081613;28;20385;-81
2021/06/19 06:45:53;;;;;;;11.98;4.03;;;25.60;53.00;;;;;;5077032;28;20067;-81
2021/06/19 06:48:18;;;;;;;15.35;5.18;;;25.70;53.20;;;;;;5076754;28;20164;-82
2021/06/19 06:50:44;;;;;;;16.13;5.22;;;25.80;53.70;;;;;;5075296;28;20376;-80
2021/06/19 06:53:10;;;;;;;14.93;5.35;;;25.80;53.40;;;;;;5075711;28;20127;-83
2021/06/19 06:55:35;;;;;;;12.55;4.75;;;25.80;52.70;;;;;;5075084;28;20535;-81
2021/06/19 06:58:01;;;;;;;10.18;4.22;;;26.00;52.90;;;;;;5074676;28;20036;-80
2021/06/19 07:00:27;;;;;;;13.77;4.55;;;26.20;52.60;;;;;;5074797;28;20025;-81
2021/06/19 07:02:53;;;;;;;12.18;4.60;;;26.30;52.60;;;;;;5074195;28;20036;-79
2021/06/19 07:05:19;;;;;;;13.07;4.70;;;26.40;52.60;;;;;;5074652;28;20094;-78
2021/06/19 07:07:45;;;;;;;17.08;5.18;;;26.60;52.80;;;;;;5074332;28;20028;-81
2021/06/19 07:10:13;;;;;;;11.68;5.07;;;26.80;54.20;;;;;;5074721;28;20121;-78
2021/06/19 07:12:42;;;;;;;17.60;5.47;;;26.90;53.30;;;;;;5074755;28;20016;-81
2021/06/19 07:15:12;;;;;;;13.73;5.38;;;27.00;53.70;;;;;;5074975;28;20413;-86
2021/06/19 07:17:39;;;;;;;18.23;6.07;;;27.00;54.20;;;;;;5075859;28;20036;-82
2021/06/19 07:20:06;;;;;;;9.07;5.10;;;27.00;54.20;;;;;;5075160;28;20031;-81
2021/06/19 07:22:32;;;;;;;20.38;6.32;;;27.10;53.80;;;;;;5074346;28;20032;-79
2021/06/19 07:24:58;;;;;;;13.63;5.35;;;27.10;54.10;;;;;;5075875;28;20052;-83
2021/06/19 07:27:24;;;;;;;14.43;5.00;;;27.20;53.40;;;;;;5078386;28;20020;-82
2021/06/19 07:29:49;;;;;;;22.88;5.05;;;27.20;53.40;;;;;;5073914;28;20071;-83
2021/06/19 07:32:15;;;;;;;16.67;5.57;;;27.40;52.20;;;;;;5077152;28;20021;-84
2021/06/19 07:34:40;;;;;;;11.63;4.72;;;27.50;51.80;;;;;;5074589;28;20041;-83
2021/06/19 07:37:06;;;;;;;13.82;5.32;;;27.70;53.00;;;;;;5072950;28;20536;-81
2021/06/19 07:39:32;;;;;;;13.98;4.80;;;27.90;51.80;;;;;;5074232;28;20441;-81
2021/06/19 07:41:58;;;;;;;20.40;5.85;;;28.10;51.50;;;;;;5074369;28;20044;-87
2021/06/19 07:44:24;;;;;;;14.07;5.13;;;28.20;51.20;;;;;;5075731;28;20095;-83
2021/06/19 07:46:50;;;;;;;13.95;4.80;;;28.30;51.20;;;;;;5075429;28;20044;-83
2021/06/19 07:49:17;;;;;;;10.85;4.70;;;28.40;50.80;;;;;;5073216;28;20119;-85
2021/06/19 07:51:43;;;;;;;15.13;5.20;;;28.50;50.20;;;;;;5072820;28;20066;-84
2021/06/19 07:54:08;;;;;;;18.63;5.72;;;28.60;49.90;;;;;;5072633;28;20498;-83
2021/06/19 07:56:34;;;;;;;19.98;5.15;;;28.70;49.70;;;;;;5073108;28;20503;-85
2021/06/19 07:59:00;;;;;;;11.10;4.80;;;28.70;49.10;;;;;;5073181;28;20457;-84
2021/06/19 08:01:26;;;;;;;15.38;5.13;;;28.80;48.10;;;;;;5078736;28;20032;-85
2021/06/19 08:03:51;;;;;;;12.70;4.72;;;29.00;48.00;;;;;;5073224;28;20165;-85
2021/06/19 08:06:17;;;;;;;12.63;5.38;;;29.10;47.30;;;;;;5073180;28;20048;-86
2021/06/19 08:08:43;;;;;;;13.90;4.38;;;29.30;46.70;;;;;;5073457;28;20487;-84
2021/06/19 08:11:08;;;;;;;14.73;5.25;;;29.40;45.10;;;;;;5073412;28;20020;-85
2021/06/19 08:13:34;;;;;;;11.32;4.60;;;29.40;45.10;;;;;;5074050;28;20030;-86
2021/06/19 08:16:02;;;;;;;9.07;4.60;;;29.50;44.00;;;;;;5074499;28;20035;-86
2021/06/19 08:18:28;;;;;;;11.18;4.45;;;29.50;44.00;;;;;;5074082;28;20484;-86
2021/06/19 08:20:53;;;;;;;14.93;5.10;;;29.60;43.90;;;;;;5072741;28;20029;-86
2021/06/19 08:23:19;;;;;;;15.00;4.95;;;29.70;43.10;;;;;;5073561;28;20052;-85
2021/06/19 08:25:44;;;;;;;18.70;5.60;;;29.70;42.30;;;;;;5072323;28;20496;-85
2021/06/19 08:28:10;;;;;;;21.83;5.35;;;29.70;42.60;;;;;;5072686;28;20407;-85
2021/06/19 08:30:35;;;;;;;17.27;5.47;;;29.80;43.00;;;;;;5072273;28;20112;-85
2021/06/19 08:33:01;;;;;;;13.20;5.20;;;29.80;42.80;;;;;;5071611;28;20029;-86
2021/06/19 08:35:27;;;;;;;13.25;5.60;;;29.90;43.10;;;;;;5074326;28;20027;-85
2021/06/19 08:37:52;;;;;;;17.45;5.82;;;30.00;43.10;;;;;;5072158;28;20017;-85
2021/06/19 08:40:18;;;;;;;15.55;5.47;;;30.00;41.30;;;;;;5073778;28;20028;-87
2021/06/19 08:42:43;;;;;;;18.38;5.25;;;29.80;40.80;;;;;;5073965;28;20103;-88
2021/06/19 08:45:09;;;;;;;22.20;6.20;;;29.80;41.80;;;;;;5075081;28;20031;-88
2021/06/19 08:47:36;;;;;;;14.35;5.05;;;29.90;43.10;;;;;;5073843;28;20550;-87
2021/06/19 08:50:11;;;;;;;16.08;4.93;;;30.00;43.60;;;;;;5077924;28;20024;-85
2021/06/19 08:52:37;;;;;;;;;;;30.00;42.90;;;;;;5080709;28;20036;-86
2021/06/19 08:55:08;;;;;;;16.80;5.57;;;30.00;42.70;;;;;;5080929;28;19904;-85
2021/06/19 08:57:34;;;;;;;24.05;5.80;;;30.00;42.40;;;;;;5094460;28;20016;-86
2021/06/19 08:59:59;;;;;;;19.52;5.95;;;30.20;42.50;;;;;;5087626;28;20028;-85
2021/06/19 09:02:25;;;;;;;19.90;5.72;;;30.20;41.50;;;;;;5077273;28;20032;-84
2021/06/19 09:05:04;;;;;;;16.77;5.57;;;30.20;42.10;;;;;;5076199;28;20099;-84
2021/06/19 09:07:52;;;;;;;15.77;6.07;;;30.40;41.90;;;;;;5076407;28;20024;-87
2021/06/19 09:10:21;;;;;;;16.42;4.97;;;30.40;41.70;;;;;;5073196;28;20480;-85
2021/06/19 09:13:15;;;;;;;13.13;4.97;;;30.50;41.10;;;;;;5072644;28;20028;-84
2021/06/19 09:15:55;;;;;;;16.88;5.75;;;30.50;41.10;;;;;;5072935;28;20473;-87
2021/06/19 09:18:23;;;;;;;18.33;6.68;;;30.60;42.00;;;;;;5074051;28;20024;-86
2021/06/19 09:20:54;;;;;;;22.48;6.95;;;30.70;43.10;;;;;;5072563;28;20029;-86
2021/06/19 09:23:41;;;;;;;23.10;6.55;;;30.70;42.30;;;;;;5071768;28;20017;-86
2021/06/19 09:26:11;;;;;;;15.07;6.05;;;30.70;42.10;;;;;;5074211;28;20036;-87
2021/06/19 09:28:59;;;;;;;19.98;5.93;;;30.70;42.40;;;;;;5071569;28;20036;-86
2021/06/19 09:31:31;;;;;;;14.13;5.88;;;30.70;41.80;;;;;;5073350;28;20070;-87
2021/06/19 09:34:06;;;;;;;22.08;6.28;;;30.90;43.40;;;;;;5071833;28;20021;-87
2021/06/19 09:36:49;;;;;;;15.90;5.10;;;30.80;43.30;;;;;;5071663;28;20048;-86
2021/06/19 09:39:35;;;;;;;23.92;5.97;;;30.90;44.00;;;;;;5071933;28;20577;-87
2021/06/19 09:42:03;;;;;;;17.88;6.10;;;30.90;43.30;;;;;;5071638;28;20021;-85
2021/06/19 09:44:44;;;;;;;18.58;5.50;;;30.70;43.90;;;;;;5080273;28;20024;-86
2021/06/19 09:47:11;;;;;;;21.10;5.85;;;30.60;43.50;;;;;;5089973;28;20055;-86
2021/06/19 09:49:39;;;;;;;17.48;6.32;;;30.50;43.30;;;;;;5100463;28;20058;-85
2021/06/19 09:52:06;;;;;;;14.93;5.80;;;30.30;44.20;;;;;;5099098;28;20027;-86
2021/06/19 09:54:43;;;;;;;21.13;7.20;;;30.40;44.70;;;;;;5076931;28;20086;-86
2021/06/19 09:57:13;;;;;;;14.48;4.93;;;30.40;44.50;;;;;;5075519;28;20082;-84
2021/06/19 09:59:39;;;;;;;16.40;5.45;;;30.50;44.20;;;;;;5075154;28;20102;-85
2021/06/19 10:02:26;;;;;;;14.57;6.00;;;30.70;44.00;;;;;;5075123;28;20031;-85
2021/06/19 10:04:55;;;;;;;19.10;5.90;;;30.80;43.80;;;;;;5076296;28;20028;-86
2021/06/19 10:07:22;;;;;;;12.88;4.65;;;30.80;43.80;;;;;;5074888;28;20020;-86
2021/06/19 10:09:49;;;;;;;14.00;5.15;;;31.00;43.90;;;;;;5088927;28;20032;-85
2021/06/19 10:12:21;;;;;;;11.40;5.07;;;31.30;43.60;;;;;;5081798;28;20043;-85
2021/06/19 10:14:52;;;;;;;17.90;5.72;;;31.50;44.20;;;;;;5075598;28;20115;-86
2021/06/19 10:17:20;;;;;;;20.35;5.57;;;31.80;43.40;;;;;;5076032;28;20017;-83
2021/06/19 10:19:47;;;;;;;17.17;5.40;;;31.80;42.20;;;;;;5075782;28;20082;-86
2021/06/19 10:22:14;;;;;;;21.42;5.97;;;31.80;40.50;;;;;;5075656;28;20028;-83
2021/06/19 10:24:43;;;;;;;15.48;6.22;;;31.80;39.60;;;;;;5075648;28;20124;-84
2021/06/19 10:27:09;;;;;;;20.00;4.85;;;31.90;39.00;;;;;;5074873;28;20322;-83
2021/06/19 10:29:35;;;;;;;16.15;5.70;;;31.90;38.60;;;;;;5075795;28;20056;-83
2021/06/19 10:32:01;;;;;;;21.27;5.50;;;32.00;39.10;;;;;;5073981;28;20047;-86
2021/06/19 10:34:30;;;;;;;15.45;5.57;;;32.00;38.80;;;;;;5074196;28;20477;-85
2021/06/19 10:37:00;;;;;;;18.38;5.40;;;32.00;37.80;;;;;;5074490;28;20031;-85
2021/06/19 10:39:39;;;;;;;22.52;5.80;;;32.10;37.50;;;;;;5075401;28;20027;-85
2021/06/19 10:42:21;;;;;;;13.50;5.05;;;32.10;36.30;;;;;;5073979;28;20021;-85
2021/06/19 10:44:49;;;;;;;18.08;5.65;;;32.20;36.00;;;;;;5073771;28;20029;-85
2021/06/19 10:47:15;;;;;;;12.77;5.43;;;32.40;35.90;;;;;;5075475;28;20140;-81
2021/06/19 10:49:42;;;;;;;20.05;5.57;;;32.50;35.80;;;;;;5074617;28;20044;-79
2021/06/19 10:52:29;;;;;;;12.35;5.07;;;32.20;34.70;;;;;;5075019;28;20066;-81
2021/06/19 10:55:15;;;;;;;13.18;4.97;;;32.00;34.10;;;;;;5074756;28;20016;-87
2021/06/19 10:57:46;;;;;;;21.67;4.80;;;31.90;32.90;;;;;;5074830;28;20033;-82
2021/06/19 11:00:30;;;;;;;22.85;5.05;;;31.80;31.90;;;;;;5074944;28;20028;-83
2021/06/19 11:03:04;;;;;;;16.38;5.55;;;31.70;32.50;;;;;;5075047;28;20108;-83
2021/06/19 11:05:45;;;;;;;27.38;6.03;;;31.50;33.50;;;;;;5074710;28;20062;-84
2021/06/19 11:08:14;;;;;;;18.45;5.88;;;31.50;34.70;;;;;;5074721;28;20036;-82
2021/06/19 11:10:48;;;;;;;19.60;5.47;;;31.50;35.30;;;;;;5074025;28;20023;-81
2021/06/19 11:13:29;;;;;;;14.63;5.57;;;31.40;34.50;;;;;;5074516;28;20024;-85
2021/06/19 11:16:02;;;;;;;17.80;5.57;;;31.50;35.00;;;;;;5074568;28;20039;-83
2021/06/19 11:18:46;;;;;;;11.95;6.10;;;31.60;34.70;;;;;;5074462;28;20025;-82
2021/06/19 11:21:13;;;;;;;21.15;5.50;;;31.70;35.00;;;;;;5079019;28;20485;-82
2021/06/19 11:24:04;;;;;;;27.00;5.85;;;31.70;35.20;;;;;;5074996;28;20029;-82
2021/06/19 11:27:00;;;;;;;19.83;6.03;;;31.70;35.40;;;;;;5074760;28;20099;-82
2021/06/19 11:29:34;;;;;;;13.38;5.53;;;32.00;35.40;;;;;;5074071;28;20111;-82
2021/06/19 11:32:29;;;;;;;19.10;6.40;;;32.20;34.60;;;;;;5073617;28;20024;-79
2021/06/19 11:34:58;;;;;;;16.40;5.45;;;31.90;34.90;;;;;;5073870;28;20021;-82
2021/06/19 11:37:24;;;;;;;17.75;5.30;;;32.00;35.90;;;;;;5074133;28;20025;-80
2021/06/19 11:39:50;;;;;;;17.38;5.68;;;32.10;36.20;;;;;;5073983;28;20021;-81
2021/06/19 11:42:16;;;;;;;27.15;6.22;;;32.30;35.60;;;;;;5074036;28;20484;-82
2021/06/19 11:44:45;;;;;;;16.50;5.05;;;32.40;34.90;;;;;;5073989;28;20021;-81
2021/06/19 11:47:12;;;;;;;11.38;5.85;;;32.30;35.30;;;;;;5073945;28;20167;-80
2021/06/19 11:49:43;;;;;;;20.83;5.60;;;32.40;34.70;;;;;;5073550;28;20588;-82
2021/06/19 11:52:14;;;;;;;15.82;5.40;;;32.50;34.60;;;;;;5074055;28;20073;-82
2021/06/19 11:54:44;;;;;;;16.25;5.15;;;32.30;34.10;;;;;;5073889;28;20024;-82
2021/06/19 11:57:23;;;;;;;17.13;4.90;;;32.30;34.00;;;;;;5074246;28;20217;-83
2021/06/19 12:00:06;;;;;;;16.30;4.72;;;32.40;33.20;;;;;;5072360;28;20465;-83
2021/06/19 12:02:31;;;;;;;17.08;4.80;;;32.70;33.00;;;;;;5072100;28;20029;-81
2021/06/19 12:04:57;;;;;;;14.70;4.63;;;33.00;32.60;;;;;;5074010;28;20150;-84
2021/06/19 12:07:26;;;;;;;20.50;5.72;;;33.00;30.90;;;;;;5071815;28;20012;-82
2021/06/19 12:09:52;;;;;;;21.98;5.45;;;33.00;31.20;;;;;;5072057;28;20036;-84
2021/06/19 12:12:18;;;;;;;21.80;5.38;;;32.80;30.90;;;;;;5074232;28;20484;-84
2021/06/19 12:14:44;;;;;;;18.08;5.38;;;32.90;30.40;;;;;;5074011;28;20028;-84
2021/06/19 12:17:13;;;;;;;13.88;5.07;;;32.80;30.30;;;;;;5074229;28;20024;-84
2021/06/19 12:19:44;;;;;;;19.85;5.60;;;32.90;30.90;;;;;;5073690;28;20473;-84
2021/06/19 12:22:15;;;;;;;17.30;5.03;;;32.90;30.60;;;;;;5073831;28;20031;-83
2021/06/19 12:24:48;;;;;;;21.52;5.18;;;33.00;30.90;;;;;;5073723;28;20019;-84
2021/06/19 12:27:18;;;;;;;15.50;5.05;;;33.00;30.90;;;;;;5074578;28;20447;-85
2021/06/19 12:29:47;;;;;;;17.88;5.53;;;33.00;30.80;;;;;;5077636;28;20028;-85
2021/06/19 12:32:23;;;;;;;14.45;5.30;;;33.10;31.10;;;;;;5077091;28;20024;-84
2021/06/19 12:34:49;;;;;;;19.77;5.85;;;33.10;31.40;;;;;;5082079;28;20025;-85
2021/06/19 12:37:19;;;;;;;19.98;7.20;;;33.10;31.50;;;;;;5084329;28;20396;-85
2021/06/19 12:39:46;;;;;;;24.42;5.75;;;33.20;31.90;;;;;;5074363;28;20017;-84
2021/06/19 12:42:12;;;;;;;15.75;5.38;;;33.60;31.20;;;;;;5074499;28;20040;-82
2021/06/19 12:44:38;;;;;;;16.88;4.85;;;33.70;30.20;;;;;;5073966;28;20024;-83